createdAt,value
2023-01-31T00:01:20.781Z,86.25
2023-01-31T00:03:48.274Z,85.43
2023-01-31T00:06:24.810Z,86.41
2023-01-31T00:08:52.453Z,85.89
2023-01-31T00:11:21.260Z,85.36
2023-01-31T00:13:48.016Z,85.58
2023-01-31T00:16:15.960Z,85.27
2023-01-31T00:18:43.064Z,85.44
2023-01-31T00:21:14.754Z,85.61
2023-01-31T00:23:42.625Z,85.60
2023-01-31T00:26:23.515Z,85.36
2023-01-31T00:28:51.901Z,85.81
2023-01-31T00:31:19.885Z,85.56
2023-01-31T00:33:50.191Z,86.08
2023-01-31T00:36:19.200Z,86.53
2023-01-31T00:38:49.508Z,86.33
2023-01-31T00:41:18.661Z,86.24
2023-01-31T00:43:45.138Z,86.28
2023-01-31T00:46:11.958Z,85.86
2023-01-31T00:48:38.851Z,85.61
2023-01-31T00:51:06.109Z,85.98
2023-01-31T00:53:32.704Z,85.74
2023-01-31T00:56:07.276Z,85.59
2023-01-31T00:58:37.135Z,85.61
2023-01-31T01:01:14.331Z,85.12
2023-01-31T01:03:42.536Z,85.17
2023-01-31T01:06:09.991Z,84.77
2023-01-31T01:08:37.668Z,84.94
2023-01-31T01:11:13.441Z,85.33
2023-01-31T01:13:40.228Z,85.20
2023-01-31T01:16:12.546Z,84.29
2023-01-31T01:18:39.463Z,84.67
2023-01-31T01:21:14.432Z,84.31
2023-01-31T01:23:42.491Z,84.15
2023-01-31T01:26:17.820Z,84.26
2023-01-31T01:28:44.636Z,84.46
2023-01-31T01:31:13.026Z,84.71
2023-01-31T01:33:40.544Z,84.73
2023-01-31T01:36:11.655Z,84.91
2023-01-31T01:38:38.108Z,84.47
2023-01-31T01:41:05.253Z,84.90
2023-01-31T01:43:46.902Z,84.34
2023-01-31T01:46:21.307Z,85.50
2023-01-31T01:48:51.285Z,85.50
2023-01-31T01:51:19.786Z,84.94
2023-01-31T01:53:50.380Z,85.40
2023-01-31T01:56:23.602Z,84.87
2023-01-31T01:59:00.551Z,84.78
2023-01-31T02:01:31.857Z,85.12
2023-01-31T02:03:58.342Z,85.03
2023-01-31T02:06:25.830Z,85.03
2023-01-31T02:08:53.930Z,84.66
2023-01-31T02:11:24.085Z,84.45
2023-01-31T02:13:56.257Z,85.04
2023-01-31T02:16:22.743Z,86.01
2023-01-31T02:21:48.801Z,86.26
2023-01-31T02:24:53.207Z,86.39
2023-01-31T02:27:59.998Z,86.58
2023-01-31T02:30:58.783Z,86.94
2023-01-31T02:33:34.803Z,87.34
2023-01-31T02:36:20.105Z,87.41
2023-01-31T02:39:02.892Z,87.37
2023-01-31T02:41:38.672Z,87.73
2023-01-31T02:44:50.675Z,88.44
2023-01-31T02:47:35.191Z,88.87
2023-01-31T02:50:11.274Z,88.51
2023-01-31T02:52:51.134Z,89.69
2023-01-31T02:55:45.596Z,89.61
2023-01-31T02:58:16.244Z,89.86
2023-01-31T03:00:45.953Z,90.22
2023-01-31T03:03:31.963Z,90.80
2023-01-31T03:06:35.866Z,90.65
2023-01-31T03:09:24.990Z,90.60
2023-01-31T03:12:19.520Z,90.73
2023-01-31T03:14:51.590Z,90.75
2023-01-31T03:17:32.973Z,90.56
2023-01-31T03:20:05.404Z,90.63
2023-01-31T03:22:44.364Z,90.43
2023-01-31T03:25:15.041Z,91.08
2023-01-31T03:27:48.210Z,91.69
2023-01-31T03:30:21.122Z,91.65
2023-01-31T03:32:57.596Z,91.95
2023-01-31T03:35:28.611Z,92.21
2023-01-31T03:38:06.068Z,92.68
2023-01-31T03:40:48.109Z,92.91
2023-01-31T03:43:17.994Z,92.94
2023-01-31T03:46:09.422Z,92.69
2023-01-31T03:48:42.950Z,93.35
2023-01-31T03:51:15.370Z,93.69
2023-01-31T03:53:51.377Z,93.31
2023-01-31T03:56:42.901Z,93.42
2023-01-31T03:59:15.377Z,93.53
2023-01-31T04:01:48.563Z,93.71
2023-01-31T04:04:21.527Z,94.02
2023-01-31T04:06:48.149Z,94.42
2023-01-31T04:09:15.401Z,94.54
2023-01-31T04:11:43.059Z,94.71
2023-01-31T04:14:10.153Z,95.22
2023-01-31T04:16:36.834Z,94.97
2023-01-31T04:19:03.307Z,95.28
2023-01-31T04:21:29.760Z,95.16
2023-01-31T04:23:56.140Z,95.03
2023-01-31T04:26:22.599Z,95.08
2023-01-31T04:28:49.299Z,95.23
2023-01-31T04:31:15.793Z,95.41
2023-01-31T04:33:42.317Z,96.53
2023-01-31T04:36:09.214Z,96.26
2023-01-31T04:38:35.654Z,95.99
2023-01-31T04:41:02.065Z,96.47
2023-01-31T04:43:28.454Z,96.87
2023-01-31T04:45:54.847Z,96.90
2023-01-31T04:48:21.243Z,96.64
2023-01-31T04:50:47.636Z,96.83
2023-01-31T04:53:14.035Z,96.93
2023-01-31T04:55:40.447Z,96.91
2023-01-31T04:58:07.761Z,97.60
2023-01-31T05:00:34.439Z,96.80
2023-01-31T05:03:02.004Z,96.57
2023-01-31T05:05:28.488Z,96.69
2023-01-31T05:07:54.942Z,96.99
2023-01-31T05:10:21.343Z,97.24
2023-01-31T05:12:47.757Z,97.99
2023-01-31T05:15:14.379Z,98.57
2023-01-31T05:17:40.783Z,98.47
2023-01-31T05:20:08.130Z,98.49
2023-01-31T05:22:34.533Z,99.00
2023-01-31T05:25:00.967Z,98.48
2023-01-31T05:27:27.446Z,99.23
2023-01-31T05:29:54.242Z,99.11
2023-01-31T05:32:20.769Z,98.16
2023-01-31T05:34:47.191Z,99.21
2023-01-31T05:37:13.600Z,99.94
2023-01-31T05:39:40.062Z,98.69
2023-01-31T05:42:06.612Z,99.05
2023-01-31T05:44:33.388Z,98.60
2023-01-31T05:47:01.406Z,99.41
2023-01-31T05:49:32.651Z,99.09
2023-01-31T05:51:59.863Z,99.70
2023-01-31T05:54:26.284Z,99.00
2023-01-31T05:56:52.674Z,98.61
2023-01-31T05:59:19.130Z,99.49
2023-01-31T06:01:45.760Z,99.28
2023-01-31T06:04:12.316Z,98.89
2023-01-31T06:06:38.697Z,98.69
2023-01-31T06:09:05.086Z,98.66
2023-01-31T06:11:31.944Z,98.88
2023-01-31T06:13:58.782Z,99.09
2023-01-31T06:16:25.624Z,98.86
2023-01-31T06:18:52.133Z,98.64
2023-01-31T06:21:18.519Z,98.66
2023-01-31T06:23:46.203Z,99.46
2023-01-31T06:26:12.720Z,100.00
2023-01-31T06:28:39.221Z,100.00
2023-01-31T06:31:09.716Z,100.00
2023-01-31T06:33:46.564Z,100.00
2023-01-31T06:36:15.997Z,100.00
2023-01-31T06:38:43.788Z,100.00
2023-01-31T06:41:10.190Z,100.00
2023-01-31T06:43:36.591Z,100.00
2023-01-31T06:46:03.036Z,100.00
2023-01-31T06:48:29.450Z,100.00
2023-01-31T06:50:56.005Z,100.00
2023-01-31T06:53:22.576Z,100.00
2023-01-31T06:55:49.084Z,100.00
2023-01-31T06:58:15.515Z,100.00
2023-01-31T07:00:41.896Z,100.00
2023-01-31T07:03:08.325Z,100.00
2023-01-31T07:05:34.730Z,100.00
2023-01-31T07:08:01.147Z,100.00
2023-01-31T07:10:27.575Z,100.00
2023-01-31T07:12:53.957Z,100.00
2023-01-31T07:15:20.797Z,100.00
2023-01-31T07:17:47.849Z,100.00
2023-01-31T07:20:14.264Z,100.00
2023-01-31T07:22:40.662Z,100.00
2023-01-31T07:25:07.489Z,100.00
2023-01-31T07:27:33.893Z,100.00
2023-01-31T07:30:00.314Z,100.00
2023-01-31T07:32:30.097Z,100.00
2023-01-31T07:34:56.515Z,100.00
2023-01-31T07:37:22.957Z,100.00
2023-01-31T07:39:49.475Z,100.00
2023-01-31T07:42:15.883Z,100.00
2023-01-31T07:44:43.018Z,100.00
2023-01-31T07:47:09.436Z,100.00
2023-01-31T07:49:35.834Z,100.00
2023-01-31T07:52:02.266Z,100.00
2023-01-31T07:54:28.679Z,100.00
2023-01-31T07:56:55.080Z,100.00
2023-01-31T07:59:21.517Z,100.00
2023-01-31T08:02:06.678Z,100.00
2023-01-31T08:04:34.257Z,100.00
2023-01-31T08:07:02.948Z,100.00
2023-01-31T08:09:29.898Z,100.00
2023-01-31T08:11:56.338Z,100.00
2023-01-31T08:14:28.338Z,100.00
2023-01-31T08:16:55.792Z,100.00
2023-01-31T08:19:22.802Z,100.00
2023-01-31T08:21:49.650Z,100.00
2023-01-31T08:24:16.251Z,100.00
2023-01-31T08:26:43.539Z,100.00
2023-01-31T08:29:10.028Z,100.00
2023-01-31T08:31:36.566Z,100.00
2023-01-31T08:34:03.254Z,100.00
2023-01-31T08:36:34.050Z,100.00
2023-01-31T08:39:00.704Z,100.00
2023-01-31T08:41:29.238Z,100.00
2023-01-31T08:43:58.941Z,100.00
2023-01-31T08:46:29.498Z,100.00
2023-01-31T08:48:55.961Z,100.00
2023-01-31T08:51:23.402Z,100.00
2023-01-31T08:53:50.181Z,100.00
2023-01-31T08:56:16.888Z,100.00
2023-01-31T08:58:44.767Z,100.00
2023-01-31T09:01:16.833Z,100.00
2023-01-31T09:03:45.384Z,100.00
2023-01-31T09:06:20.778Z,100.00
2023-01-31T09:08:47.309Z,100.00
2023-01-31T09:11:19.042Z,100.00
2023-01-31T09:13:47.612Z,100.00
2023-01-31T09:16:14.918Z,100.00
2023-01-31T09:18:42.074Z,100.00
2023-01-31T09:21:19.717Z,100.00
2023-01-31T09:23:46.883Z,100.00
2023-01-31T09:26:14.771Z,100.00
2023-01-31T09:28:43.219Z,100.00
2023-01-31T09:31:15.620Z,100.00
2023-01-31T09:33:42.760Z,100.00
2023-01-31T09:36:11.912Z,99.43
2023-01-31T09:38:38.711Z,99.39
2023-01-31T09:41:14.837Z,98.50
2023-01-31T09:43:47.443Z,98.73
2023-01-31T09:46:18.899Z,98.41
2023-01-31T09:48:49.861Z,98.40
2023-01-31T09:51:16.912Z,98.35
2023-01-31T09:53:44.311Z,97.64
2023-01-31T09:56:39.926Z,97.62
2023-01-31T09:59:28.294Z,98.25
2023-01-31T10:02:28.309Z,98.13
2023-01-31T10:05:06.789Z,97.86
2023-01-31T10:07:41.110Z,97.03
2023-01-31T10:10:35.051Z,98.00
2023-01-31T10:13:11.536Z,97.60
2023-01-31T10:15:47.965Z,97.49
2023-01-31T10:18:24.688Z,98.33
2023-01-31T10:20:57.117Z,100.00
2023-01-31T10:23:52.695Z,100.00
2023-01-31T10:26:34.702Z,100.00
2023-01-31T10:29:10.755Z,100.00
2023-01-31T10:31:44.331Z,100.00
2023-01-31T10:34:17.779Z,100.00
2023-01-31T10:36:51.228Z,100.00
2023-01-31T10:39:25.108Z,100.00
2023-01-31T10:41:54.545Z,100.00
2023-01-31T10:44:32.528Z,100.00
2023-01-31T10:47:00.035Z,100.00
2023-01-31T10:49:27.440Z,100.00
2023-01-31T10:52:13.219Z,99.22
2023-01-31T10:54:54.634Z,99.36
2023-01-31T10:57:22.108Z,99.29
2023-01-31T10:59:50.157Z,98.24
2023-01-31T11:02:21.447Z,97.02
2023-01-31T11:04:50.279Z,97.29
2023-01-31T11:07:16.769Z,97.12
2023-01-31T11:09:53.943Z,97.32
2023-01-31T11:12:22.546Z,98.40
2023-01-31T11:15:29.087Z,98.89
2023-01-31T11:18:00.761Z,100.00
2023-01-31T11:20:30.323Z,100.00
2023-01-31T11:22:58.758Z,100.00
2023-01-31T11:25:27.705Z,100.00
2023-01-31T11:27:58.674Z,100.00
2023-01-31T11:30:33.131Z,100.00
2023-01-31T11:32:59.616Z,100.00
2023-01-31T11:35:28.783Z,100.00
2023-01-31T11:38:11.840Z,99.69
2023-01-31T11:40:40.260Z,98.51
2023-01-31T11:43:24.870Z,98.27
2023-01-31T11:46:09.274Z,97.93
2023-01-31T11:48:42.867Z,97.46
2023-01-31T11:51:12.457Z,96.71
2023-01-31T11:53:46.800Z,96.71
2023-01-31T11:56:17.326Z,96.28
2023-01-31T11:58:47.075Z,98.48
2023-01-31T12:01:17.433Z,100.00
2023-01-31T12:04:02.752Z,100.00
2023-01-31T12:06:40.942Z,100.00
2023-01-31T12:09:19.622Z,100.00
2023-01-31T12:12:16.286Z,100.00
2023-01-31T12:14:47.883Z,100.00
2023-01-31T12:17:17.512Z,100.00
2023-01-31T12:20:28.482Z,100.00
2023-01-31T12:23:12.802Z,100.00
2023-01-31T12:26:05.156Z,100.00
2023-01-31T12:28:54.336Z,100.00
2023-01-31T12:31:37.954Z,100.00
2023-01-31T12:34:57.949Z,100.00
2023-01-31T12:37:45.271Z,100.00
2023-01-31T12:40:32.609Z,100.00
2023-01-31T12:43:02.214Z,100.00
2023-01-31T12:45:42.788Z,100.00
2023-01-31T12:48:30.881Z,100.00
2023-01-31T12:51:22.586Z,100.00
2023-01-31T12:54:30.689Z,100.00
2023-01-31T12:57:13.221Z,100.00
2023-01-31T12:59:55.351Z,100.00
2023-01-31T13:02:24.743Z,100.00
2023-01-31T13:05:01.962Z,100.00
2023-01-31T13:07:39.066Z,100.00
2023-01-31T13:10:15.301Z,100.00
2023-01-31T13:12:41.997Z,100.00
2023-01-31T13:15:19.876Z,100.00
2023-01-31T13:17:52.579Z,100.00
2023-01-31T13:20:29.502Z,100.00
2023-01-31T13:22:59.052Z,100.00
2023-01-31T13:25:28.527Z,100.00
2023-01-31T13:28:18.307Z,100.00
2023-01-31T13:30:52.182Z,100.00
2023-01-31T13:33:28.035Z,100.00
2023-01-31T13:36:06.586Z,100.00
2023-01-31T13:38:42.538Z,100.00
2023-01-31T13:41:17.890Z,100.00
2023-01-31T13:43:44.322Z,100.00
2023-01-31T13:46:13.878Z,100.00
2023-01-31T13:48:47.282Z,100.00
2023-01-31T13:51:43.051Z,100.00
2023-01-31T13:54:31.301Z,100.00
2023-01-31T13:56:59.922Z,100.00
2023-01-31T13:59:32.174Z,100.00
2023-01-31T14:02:01.547Z,100.00
2023-01-31T14:04:34.728Z,100.00
2023-01-31T14:07:06.543Z,100.00
2023-01-31T14:09:36.388Z,100.00
2023-01-31T14:12:15.471Z,100.00
2023-01-31T14:14:47.045Z,100.00
2023-01-31T14:17:13.408Z,100.00
2023-01-31T14:19:42.757Z,100.00
2023-01-31T14:22:19.965Z,100.00
2023-01-31T14:24:49.939Z,100.00
2023-01-31T14:27:26.014Z,100.00
2023-01-31T14:30:07.695Z,100.00
2023-01-31T14:33:06.732Z,100.00
2023-01-31T14:35:44.149Z,100.00
2023-01-31T14:38:41.554Z,100.00
2023-01-31T14:41:35.176Z,100.00
2023-01-31T14:45:03.403Z,100.00
2023-01-31T14:47:48.627Z,100.00
2023-01-31T14:50:31.934Z,100.00
2023-01-31T14:53:22.762Z,100.00
2023-01-31T14:56:08.658Z,100.00
2023-01-31T14:58:36.066Z,100.00
2023-01-31T15:01:06.803Z,100.00
2023-01-31T15:03:54.365Z,100.00
2023-01-31T15:06:28.021Z,100.00
2023-01-31T15:09:16.396Z,100.00
2023-01-31T15:11:46.462Z,100.00
2023-01-31T15:14:49.120Z,100.00
2023-01-31T15:17:35.143Z,100.00
2023-01-31T15:20:27.305Z,100.00
2023-01-31T15:22:58.792Z,100.00
2023-01-31T15:25:34.682Z,100.00
2023-01-31T15:28:02.514Z,100.00
2023-01-31T15:30:33.095Z,100.00
2023-01-31T15:33:07.923Z,100.00
2023-01-31T15:35:44.520Z,100.00
2023-01-31T15:38:32.177Z,100.00
2023-01-31T15:41:17.611Z,100.00
2023-01-31T15:43:45.407Z,100.00
2023-01-31T15:46:24.577Z,100.00
2023-01-31T15:48:51.551Z,100.00
2023-01-31T15:51:19.125Z,100.00
2023-01-31T15:53:46.167Z,100.00
2023-01-31T15:56:24.282Z,100.00
2023-01-31T15:58:53.774Z,100.00
2023-01-31T16:01:20.508Z,100.00
2023-01-31T16:03:55.707Z,100.00
2023-01-31T16:06:32.266Z,100.00
2023-01-31T16:09:01.451Z,100.00
2023-01-31T16:11:34.186Z,100.00
2023-01-31T16:14:07.601Z,100.00
2023-01-31T16:16:35.409Z,100.00
2023-01-31T16:19:03.053Z,100.00
2023-01-31T16:21:29.397Z,100.00
2023-01-31T16:24:11.051Z,100.00
2023-01-31T16:26:39.693Z,100.00
2023-01-31T16:29:09.269Z,100.00
2023-01-31T16:31:47.927Z,100.00
2023-01-31T16:34:38.430Z,100.00
2023-01-31T16:37:07.222Z,100.00
2023-01-31T16:39:40.893Z,100.00
2023-01-31T16:42:16.154Z,100.00
2023-01-31T16:44:45.103Z,100.00
2023-01-31T16:47:39.147Z,100.00
2023-01-31T16:50:17.383Z,100.00
2023-01-31T16:52:45.696Z,100.00
2023-01-31T16:55:14.667Z,100.00
2023-01-31T16:57:41.385Z,100.00
2023-01-31T17:00:27.877Z,100.00
2023-01-31T17:02:56.647Z,100.00
2023-01-31T17:05:29.100Z,100.00
2023-01-31T17:07:57.265Z,100.00
2023-01-31T17:10:29.943Z,100.00
2023-01-31T17:13:09.128Z,100.00
2023-01-31T17:15:35.626Z,100.00
2023-01-31T17:18:02.048Z,100.00
2023-01-31T17:20:28.457Z,100.00
2023-01-31T17:23:02.397Z,100.00
2023-01-31T17:25:33.366Z,100.00
2023-01-31T17:28:00.035Z,100.00
2023-01-31T17:30:30.063Z,100.00
2023-01-31T17:32:57.275Z,100.00
2023-01-31T17:35:31.462Z,100.00
2023-01-31T17:37:57.943Z,100.00
2023-01-31T17:40:24.406Z,100.00
2023-01-31T17:42:55.431Z,100.00
2023-01-31T17:45:22.076Z,100.00
2023-01-31T17:47:48.816Z,100.00
2023-01-31T17:50:17.964Z,100.00
2023-01-31T17:52:44.675Z,100.00
2023-01-31T17:55:11.719Z,100.00
2023-01-31T17:57:38.453Z,100.00
2023-01-31T18:00:08.261Z,100.00
2023-01-31T18:02:34.779Z,100.00
2023-01-31T18:05:01.230Z,100.00
2023-01-31T18:07:27.800Z,100.00
2023-01-31T18:09:54.567Z,100.00
2023-01-31T18:12:20.974Z,100.00
2023-01-31T18:14:47.389Z,100.00
2023-01-31T18:17:14.022Z,100.00
2023-01-31T18:19:40.456Z,100.00
2023-01-31T18:22:06.859Z,100.00
2023-01-31T18:24:33.736Z,100.00
2023-01-31T18:27:00.238Z,100.00
2023-01-31T18:29:26.673Z,100.00
2023-01-31T18:31:56.322Z,100.00
2023-01-31T18:34:23.681Z,100.00
2023-01-31T18:36:50.566Z,100.00
2023-01-31T18:39:16.961Z,100.00
2023-01-31T18:41:43.376Z,100.00
2023-01-31T18:44:09.905Z,100.00
2023-01-31T18:46:36.537Z,100.00
2023-01-31T18:49:02.949Z,100.00
2023-01-31T18:51:29.346Z,100.00
2023-01-31T18:53:55.729Z,100.00
2023-01-31T18:56:23.644Z,100.00
2023-01-31T18:58:52.290Z,100.00
2023-01-31T19:01:21.357Z,100.00
2023-01-31T19:03:58.104Z,100.00
2023-01-31T19:06:27.239Z,100.00
2023-01-31T19:08:55.739Z,100.00
2023-01-31T19:11:24.961Z,100.00
2023-01-31T19:13:51.473Z,100.00
2023-01-31T19:16:23.568Z,100.00
2023-01-31T19:18:50.085Z,100.00
2023-01-31T19:21:23.067Z,100.00
2023-01-31T19:23:51.446Z,100.00
2023-01-31T19:26:18.067Z,100.00
2023-01-31T19:28:46.066Z,100.00
2023-01-31T19:31:18.524Z,100.00
2023-01-31T19:33:49.976Z,100.00
2023-01-31T19:36:19.563Z,100.00
2023-01-31T19:38:45.975Z,100.00
2023-01-31T19:41:18.881Z,100.00
2023-01-31T19:43:46.112Z,100.00
2023-01-31T19:46:12.729Z,100.00
2023-01-31T19:48:39.179Z,100.00
2023-01-31T19:51:08.325Z,100.00
2023-01-31T19:53:35.447Z,100.00
2023-01-31T19:56:01.975Z,100.00
2023-01-31T19:58:31.284Z,100.00
2023-01-31T20:01:18.414Z,100.00
2023-01-31T20:03:45.469Z,100.00
2023-01-31T20:06:14.444Z,100.00
2023-01-31T20:08:40.976Z,100.00
2023-01-31T20:11:08.264Z,100.00
2023-01-31T20:13:35.257Z,100.00
2023-01-31T20:16:05.889Z,100.00
2023-01-31T20:18:33.462Z,100.00
2023-01-31T20:21:01.168Z,100.00
2023-01-31T20:23:29.024Z,100.00
2023-01-31T20:25:56.652Z,100.00
2023-01-31T20:28:24.299Z,100.00
2023-01-31T20:30:51.387Z,100.00
2023-01-31T20:33:18.689Z,100.00
2023-01-31T20:35:45.554Z,100.00
2023-01-31T20:38:12.791Z,100.00
2023-01-31T20:40:39.241Z,100.00
2023-01-31T20:43:06.799Z,100.00
2023-01-31T20:45:33.932Z,100.00
2023-01-31T20:48:00.840Z,100.00
2023-01-31T20:50:27.928Z,100.00
2023-01-31T20:52:54.842Z,100.00
2023-01-31T20:55:21.752Z,100.00
2023-01-31T20:57:50.131Z,100.00
2023-01-31T21:00:18.290Z,100.00
2023-01-31T21:02:45.183Z,100.00
2023-01-31T21:05:12.657Z,100.00
2023-01-31T21:07:39.656Z,100.00
2023-01-31T21:10:07.518Z,100.00
2023-01-31T21:12:34.031Z,100.00
2023-01-31T21:15:00.526Z,100.00
2023-01-31T21:17:39.163Z,100.00
2023-01-31T21:20:07.807Z,100.00
2023-01-31T21:22:34.770Z,99.82
2023-01-31T21:25:01.233Z,99.43
2023-01-31T21:27:27.693Z,98.70
2023-01-31T21:29:54.123Z,100.00
2023-01-31T21:32:20.529Z,99.92
2023-01-31T21:34:46.947Z,98.96
2023-01-31T21:37:13.369Z,100.00
2023-01-31T21:39:39.762Z,99.98
2023-01-31T21:42:15.264Z,99.90
2023-01-31T21:44:42.924Z,99.99
2023-01-31T21:47:09.663Z,99.61
2023-01-31T21:49:36.122Z,100.00
2023-01-31T21:52:02.952Z,100.00
2023-01-31T21:54:29.420Z,100.00
2023-01-31T21:56:55.895Z,100.00
2023-01-31T21:59:23.408Z,100.00
2023-01-31T22:01:51.761Z,100.00
2023-01-31T22:04:23.422Z,100.00
2023-01-31T22:06:50.770Z,100.00
2023-01-31T22:09:17.987Z,100.00
2023-01-31T22:11:44.971Z,100.00
2023-01-31T22:14:13.662Z,100.00
2023-01-31T22:16:41.406Z,100.00
2023-01-31T22:19:08.168Z,100.00
2023-01-31T22:21:37.044Z,100.00
2023-01-31T22:24:06.368Z,100.00
2023-01-31T22:26:35.730Z,100.00
2023-01-31T22:29:04.064Z,100.00
2023-01-31T22:31:31.259Z,100.00
2023-01-31T22:33:59.880Z,100.00
2023-01-31T22:36:26.671Z,100.00
2023-01-31T22:38:53.372Z,100.00
2023-01-31T22:41:20.370Z,100.00
2023-01-31T22:43:49.341Z,100.00
2023-01-31T22:46:21.729Z,100.00
2023-01-31T22:48:49.443Z,100.00
2023-01-31T22:51:18.984Z,100.00
2023-01-31T22:53:46.073Z,100.00
2023-01-31T22:56:21.031Z,100.00
2023-01-31T22:58:48.516Z,100.00
2023-01-31T23:01:20.566Z,100.00
2023-01-31T23:03:48.507Z,100.00
2023-01-31T23:06:16.660Z,100.00
2023-01-31T23:08:43.570Z,100.00
2023-01-31T23:11:12.625Z,100.00
2023-01-31T23:13:40.671Z,100.00
2023-01-31T23:16:09.199Z,100.00
2023-01-31T23:18:35.964Z,100.00
2023-01-31T23:21:16.754Z,100.00
2023-01-31T23:23:44.080Z,100.00
2023-01-31T23:26:11.687Z,100.00
2023-01-31T23:28:38.736Z,100.00
2023-01-31T23:31:05.297Z,100.00
2023-01-31T23:33:31.795Z,99.85
2023-01-31T23:35:58.240Z,100.00
2023-01-31T23:38:24.702Z,100.00
2023-01-31T23:40:52.989Z,100.00
2023-01-31T23:43:20.032Z,99.60
2023-01-31T23:45:46.745Z,98.84
2023-01-31T23:48:13.359Z,98.80
2023-01-31T23:50:39.855Z,98.40
2023-01-31T23:53:06.308Z,98.06
2023-01-31T23:55:32.947Z,97.22
2023-01-31T23:57:59.351Z,96.55
